sensor_id;sensor_type;location;lat;lon;timestamp;P1;durP1;ratioP1;P2;durP2;ratioP2
35376;SDS011;21480;51.642;4.834;2022-08-01T00:00:25;127.60;;;116.43;;
35376;SDS011;21480;51.642;4.834;2022-08-01T00:02:51;128.73;;;117.93;;
35376;SDS011;21480;51.642;4.834;2022-08-01T00:05:16;128.87;;;117.63;;
35376;SDS011;21480;51.642;4.834;2022-08-01T00:07:42;132.33;;;120.47;;
35376;SDS011;21480;51.642;4.834;2022-08-01T00:10:09;128.63;;;117.67;;
35376;SDS011;21480;51.642;4.834;2022-08-01T00:12:37;129.37;;;118.00;;
35376;SDS011;21480;51.642;4.834;2022-08-01T00:15:04;128.87;;;117.43;;
35376;SDS011;21480;51.642;4.834;2022-08-01T00:17:30;127.37;;;116.23;;
35376;SDS011;21480;51.642;4.834;2022-08-01T00:19:59;127.27;;;116.13;;
35376;SDS011;21480;51.642;4.834;2022-08-01T00:22:27;127.70;;;116.60;;
35376;SDS011;21480;51.642;4.834;2022-08-01T00:24:54;127.37;;;116.40;;
35376;SDS011;21480;51.642;4.834;2022-08-01T00:27:19;128.47;;;117.00;;
35376;SDS011;21480;51.642;4.834;2022-08-01T00:29:45;127.47;;;116.17;;
35376;SDS011;21480;51.642;4.834;2022-08-01T00:32:11;128.83;;;117.20;;
35376;SDS011;21480;51.642;4.834;2022-08-01T00:34:37;127.00;;;116.53;;
35376;SDS011;21480;51.642;4.834;2022-08-01T00:37:02;130.43;;;119.13;;
35376;SDS011;21480;51.642;4.834;2022-08-01T00:39:28;128.87;;;117.60;;
35376;SDS011;21480;51.642;4.834;2022-08-01T00:41:54;127.97;;;116.87;;
35376;SDS011;21480;51.642;4.834;2022-08-01T00:44:19;125.93;;;115.23;;
35376;SDS011;21480;51.642;4.834;2022-08-01T00:46:45;128.93;;;117.33;;
35376;SDS011;21480;51.642;4.834;2022-08-01T00:49:11;128.10;;;116.80;;
35376;SDS011;21480;51.642;4.834;2022-08-01T00:51:37;129.77;;;118.07;;
35376;SDS011;21480;51.642;4.834;2022-08-01T00:54:04;127.37;;;116.33;;
35376;SDS011;21480;51.642;4.834;2022-08-01T00:56:30;129.63;;;118.10;;
35376;SDS011;21480;51.642;4.834;2022-08-01T00:58:55;126.83;;;115.40;;
35376;SDS011;21480;51.642;4.834;2022-08-01T01:01:22;129.33;;;117.53;;
35376;SDS011;21480;51.642;4.834;2022-08-01T01:03:51;131.63;;;119.17;;
35376;SDS011;21480;51.642;4.834;2022-08-01T01:06:23;128.23;;;116.33;;
35376;SDS011;21480;51.642;4.834;2022-08-01T01:09:02;129.83;;;118.13;;
35376;SDS011;21480;51.642;4.834;2022-08-01T01:14:26;129.03;;;116.60;;
35376;SDS011;21480;51.642;4.834;2022-08-01T01:17:16;129.07;;;116.67;;
35376;SDS011;21480;51.642;4.834;2022-08-01T01:19:45;130.00;;;118.90;;
35376;SDS011;21480;51.642;4.834;2022-08-01T01:28:22;126.77;;;116.43;;
35376;SDS011;21480;51.642;4.834;2022-08-01T01:30:51;129.00;;;117.43;;
35376;SDS011;21480;51.642;4.834;2022-08-01T01:33:20;127.03;;;116.10;;
35376;SDS011;21480;51.642;4.834;2022-08-01T01:35:49;128.40;;;117.70;;
35376;SDS011;21480;51.642;4.834;2022-08-01T01:38:18;128.03;;;117.00;;
35376;SDS011;21480;51.642;4.834;2022-08-01T01:40:46;129.43;;;117.87;;
35376;SDS011;21480;51.642;4.834;2022-08-01T01:43:14;127.57;;;116.03;;
35376;SDS011;21480;51.642;4.834;2022-08-01T01:45:41;128.13;;;116.10;;
35376;SDS011;21480;51.642;4.834;2022-08-01T01:48:09;127.93;;;116.37;;
35376;SDS011;21480;51.642;4.834;2022-08-01T01:50:37;128.43;;;116.73;;
35376;SDS011;21480;51.642;4.834;2022-08-01T01:53:04;131.23;;;118.37;;
35376;SDS011;21480;51.642;4.834;2022-08-01T01:55:31;126.87;;;116.13;;
35376;SDS011;21480;51.642;4.834;2022-08-01T01:57:59;130.20;;;118.83;;
35376;SDS011;21480;51.642;4.834;2022-08-01T02:00:26;129.57;;;118.23;;
35376;SDS011;21480;51.642;4.834;2022-08-01T02:02:54;130.83;;;119.07;;
35376;SDS011;21480;51.642;4.834;2022-08-01T02:05:21;131.00;;;118.20;;
35376;SDS011;21480;51.642;4.834;2022-08-01T02:07:49;130.07;;;117.97;;
35376;SDS011;21480;51.642;4.834;2022-08-01T02:10:17;132.53;;;120.43;;
35376;SDS011;21480;51.642;4.834;2022-08-01T02:12:44;130.03;;;118.40;;
35376;SDS011;21480;51.642;4.834;2022-08-01T02:15:13;129.07;;;117.43;;
35376;SDS011;21480;51.642;4.834;2022-08-01T02:17:43;128.77;;;116.90;;
35376;SDS011;21480;51.642;4.834;2022-08-01T02:20:12;129.87;;;117.93;;
35376;SDS011;21480;51.642;4.834;2022-08-01T02:22:42;129.80;;;117.07;;
35376;SDS011;21480;51.642;4.834;2022-08-01T02:27:51;130.50;;;118.47;;
35376;SDS011;21480;51.642;4.834;2022-08-01T02:30:22;132.43;;;120.03;;
35376;SDS011;21480;51.642;4.834;2022-08-01T02:32:57;131.80;;;119.77;;
35376;SDS011;21480;51.642;4.834;2022-08-01T02:35:27;129.17;;;117.33;;
35376;SDS011;21480;51.642;4.834;2022-08-01T02:37:57;131.27;;;118.90;;
35376;SDS011;21480;51.642;4.834;2022-08-01T02:40:28;132.27;;;120.00;;
35376;SDS011;21480;51.642;4.834;2022-08-01T02:42:57;132.47;;;118.80;;
35376;SDS011;21480;51.642;4.834;2022-08-01T02:45:25;131.93;;;117.90;;
35376;SDS011;21480;51.642;4.834;2022-08-01T02:47:54;131.90;;;119.13;;
35376;SDS011;21480;51.642;4.834;2022-08-01T02:50:26;131.23;;;118.67;;
35376;SDS011;21480;51.642;4.834;2022-08-01T02:52:54;131.23;;;118.73;;
35376;SDS011;21480;51.642;4.834;2022-08-01T02:55:22;127.70;;;115.97;;
35376;SDS011;21480;51.642;4.834;2022-08-01T02:57:48;128.23;;;116.13;;
35376;SDS011;21480;51.642;4.834;2022-08-01T03:00:17;132.23;;;118.77;;
35376;SDS011;21480;51.642;4.834;2022-08-01T03:02:43;131.23;;;118.23;;
35376;SDS011;21480;51.642;4.834;2022-08-01T03:05:15;131.93;;;117.80;;
35376;SDS011;21480;51.642;4.834;2022-08-01T03:07:42;132.93;;;119.40;;
35376;SDS011;21480;51.642;4.834;2022-08-01T03:10:09;131.67;;;117.73;;
35376;SDS011;21480;51.642;4.834;2022-08-01T03:12:35;134.57;;;120.97;;
35376;SDS011;21480;51.642;4.834;2022-08-01T03:15:03;132.40;;;118.63;;
35376;SDS011;21480;51.642;4.834;2022-08-01T03:17:30;133.13;;;119.37;;
35376;SDS011;21480;51.642;4.834;2022-08-01T03:19:58;134.07;;;120.60;;
35376;SDS011;21480;51.642;4.834;2022-08-01T03:22:27;134.50;;;120.00;;
35376;SDS011;21480;51.642;4.834;2022-08-01T03:24:54;139.10;;;120.60;;
35376;SDS011;21480;51.642;4.834;2022-08-01T03:27:23;131.50;;;118.13;;
35376;SDS011;21480;51.642;4.834;2022-08-01T03:29:54;130.40;;;117.70;;
35376;SDS011;21480;51.642;4.834;2022-08-01T03:32:21;131.90;;;118.23;;
35376;SDS011;21480;51.642;4.834;2022-08-01T03:34:47;131.47;;;119.07;;
35376;SDS011;21480;51.642;4.834;2022-08-01T03:39:58;126.67;;;116.00;;
35376;SDS011;21480;51.642;4.834;2022-08-01T03:42:34;128.23;;;116.87;;
35376;SDS011;21480;51.642;4.834;2022-08-01T03:45:10;128.97;;;117.23;;
35376;SDS011;21480;51.642;4.834;2022-08-01T03:47:42;129.43;;;117.43;;
35376;SDS011;21480;51.642;4.834;2022-08-01T03:50:09;130.20;;;118.37;;
35376;SDS011;21480;51.642;4.834;2022-08-01T03:52:38;127.17;;;116.17;;
35376;SDS011;21480;51.642;4.834;2022-08-01T03:55:06;127.30;;;116.40;;
35376;SDS011;21480;51.642;4.834;2022-08-01T03:57:37;126.87;;;115.73;;
35376;SDS011;21480;51.642;4.834;2022-08-01T04:00:05;126.67;;;115.73;;
35376;SDS011;21480;51.642;4.834;2022-08-01T04:02:33;128.77;;;115.83;;
35376;SDS011;21480;51.642;4.834;2022-08-01T04:05:01;126.43;;;115.80;;
35376;SDS011;21480;51.642;4.834;2022-08-01T04:07:33;125.33;;;114.83;;
35376;SDS011;21480;51.642;4.834;2022-08-01T04:10:02;128.17;;;116.83;;
35376;SDS011;21480;51.642;4.834;2022-08-01T04:12:28;122.80;;;112.77;;
35376;SDS011;21480;51.642;4.834;2022-08-01T04:14:54;124.33;;;113.77;;
35376;SDS011;21480;51.642;4.834;2022-08-01T04:17:20;127.90;;;116.20;;
35376;SDS011;21480;51.642;4.834;2022-08-01T04:19:45;123.60;;;112.70;;
35376;SDS011;21480;51.642;4.834;2022-08-01T04:22:11;124.57;;;113.90;;
35376;SDS011;21480;51.642;4.834;2022-08-01T04:24:41;124.87;;;114.80;;
35376;SDS011;21480;51.642;4.834;2022-08-01T04:27:11;124.33;;;113.97;;
35376;SDS011;21480;51.642;4.834;2022-08-01T04:29:39;123.57;;;113.30;;
35376;SDS011;21480;51.642;4.834;2022-08-01T04:32:07;122.67;;;112.63;;
35376;SDS011;21480;51.642;4.834;2022-08-01T04:34:36;121.83;;;112.20;;
35376;SDS011;21480;51.642;4.834;2022-08-01T04:37:05;122.00;;;112.07;;
35376;SDS011;21480;51.642;4.834;2022-08-01T04:39:34;120.50;;;110.67;;
35376;SDS011;21480;51.642;4.834;2022-08-01T04:42:02;122.03;;;112.67;;
35376;SDS011;21480;51.642;4.834;2022-08-01T04:44:30;120.20;;;110.80;;
35376;SDS011;21480;51.642;4.834;2022-08-01T04:46:58;122.00;;;112.30;;
35376;SDS011;21480;51.642;4.834;2022-08-01T04:49:26;121.47;;;111.80;;
35376;SDS011;21480;51.642;4.834;2022-08-01T04:51:53;121.30;;;111.43;;
35376;SDS011;21480;51.642;4.834;2022-08-01T04:54:25;120.43;;;111.33;;
35376;SDS011;21480;51.642;4.834;2022-08-01T04:56:55;121.33;;;111.83;;
35376;SDS011;21480;51.642;4.834;2022-08-01T04:59:28;123.63;;;113.30;;
35376;SDS011;21480;51.642;4.834;2022-08-01T05:02:11;123.97;;;113.87;;
35376;SDS011;21480;51.642;4.834;2022-08-01T05:04:41;123.37;;;113.33;;
35376;SDS011;21480;51.642;4.834;2022-08-01T05:07:08;122.53;;;112.33;;
35376;SDS011;21480;51.642;4.834;2022-08-01T05:09:35;119.77;;;110.97;;
35376;SDS011;21480;51.642;4.834;2022-08-01T05:12:01;120.07;;;111.37;;
35376;SDS011;21480;51.642;4.834;2022-08-01T05:14:29;119.17;;;110.10;;
35376;SDS011;21480;51.642;4.834;2022-08-01T05:16:59;121.60;;;112.57;;
35376;SDS011;21480;51.642;4.834;2022-08-01T05:19:28;120.57;;;111.63;;
35376;SDS011;21480;51.642;4.834;2022-08-01T05:21:55;121.60;;;112.77;;
35376;SDS011;21480;51.642;4.834;2022-08-01T05:24:21;118.50;;;109.90;;
35376;SDS011;21480;51.642;4.834;2022-08-01T05:26:47;119.57;;;110.93;;
35376;SDS011;21480;51.642;4.834;2022-08-01T05:29:14;120.90;;;111.83;;
35376;SDS011;21480;51.642;4.834;2022-08-01T05:31:40;120.50;;;111.87;;
35376;SDS011;21480;51.642;4.834;2022-08-01T05:34:06;120.37;;;111.67;;
35376;SDS011;21480;51.642;4.834;2022-08-01T05:36:32;119.57;;;111.17;;
35376;SDS011;21480;51.642;4.834;2022-08-01T05:38:57;120.30;;;111.80;;
35376;SDS011;21480;51.642;4.834;2022-08-01T05:41:23;118.07;;;109.87;;
35376;SDS011;21480;51.642;4.834;2022-08-01T05:43:49;117.07;;;108.97;;
35376;SDS011;21480;51.642;4.834;2022-08-01T05:46:14;119.80;;;111.50;;
35376;SDS011;21480;51.642;4.834;2022-08-01T05:48:40;116.80;;;108.70;;
35376;SDS011;21480;51.642;4.834;2022-08-01T05:51:06;117.40;;;109.30;;
35376;SDS011;21480;51.642;4.834;2022-08-01T05:53:31;118.27;;;109.63;;
35376;SDS011;21480;51.642;4.834;2022-08-01T05:55:59;118.20;;;110.07;;
35376;SDS011;21480;51.642;4.834;2022-08-01T05:58:26;117.40;;;109.27;;
35376;SDS011;21480;51.642;4.834;2022-08-01T06:00:51;116.17;;;108.27;;
35376;SDS011;21480;51.642;4.834;2022-08-01T06:03:18;119.20;;;110.90;;
35376;SDS011;21480;51.642;4.834;2022-08-01T06:05:44;116.20;;;108.10;;
35376;SDS011;21480;51.642;4.834;2022-08-01T06:08:09;118.67;;;110.43;;
35376;SDS011;21480;51.642;4.834;2022-08-01T06:10:35;116.53;;;108.50;;
35376;SDS011;21480;51.642;4.834;2022-08-01T06:13:01;117.43;;;109.13;;
35376;SDS011;21480;51.642;4.834;2022-08-01T06:15:31;118.33;;;110.23;;
35376;SDS011;21480;51.642;4.834;2022-08-01T06:17:57;117.63;;;109.43;;
35376;SDS011;21480;51.642;4.834;2022-08-01T06:20:23;119.93;;;111.57;;
35376;SDS011;21480;51.642;4.834;2022-08-01T06:22:49;118.47;;;110.00;;
35376;SDS011;21480;51.642;4.834;2022-08-01T06:25:16;117.87;;;109.67;;
35376;SDS011;21480;51.642;4.834;2022-08-01T06:27:43;117.67;;;109.67;;
35376;SDS011;21480;51.642;4.834;2022-08-01T06:30:09;116.07;;;108.27;;
35376;SDS011;21480;51.642;4.834;2022-08-01T06:32:35;117.77;;;109.63;;
35376;SDS011;21480;51.642;4.834;2022-08-01T06:35:01;115.97;;;108.17;;
35376;SDS011;21480;51.642;4.834;2022-08-01T06:37:30;116.03;;;108.23;;
35376;SDS011;21480;51.642;4.834;2022-08-01T06:40:01;115.03;;;107.23;;
35376;SDS011;21480;51.642;4.834;2022-08-01T06:42:34;114.33;;;106.63;;
35376;SDS011;21480;51.642;4.834;2022-08-01T06:45:10;116.17;;;108.37;;
35376;SDS011;21480;51.642;4.834;2022-08-01T06:47:37;115.17;;;107.47;;
35376;SDS011;21480;51.642;4.834;2022-08-01T06:50:04;115.83;;;108.03;;
35376;SDS011;21480;51.642;4.834;2022-08-01T06:52:31;115.47;;;107.77;;
35376;SDS011;21480;51.642;4.834;2022-08-01T06:54:57;116.37;;;108.47;;
35376;SDS011;21480;51.642;4.834;2022-08-01T06:57:22;115.03;;;107.23;;
35376;SDS011;21480;51.642;4.834;2022-08-01T06:59:48;116.57;;;108.87;;
35376;SDS011;21480;51.642;4.834;2022-08-01T07:02:14;116.87;;;109.17;;
35376;SDS011;21480;51.642;4.834;2022-08-01T07:04:40;115.37;;;107.67;;
35376;SDS011;21480;51.642;4.834;2022-08-01T07:07:06;115.47;;;107.87;;
35376;SDS011;21480;51.642;4.834;2022-08-01T07:09:32;113.33;;;105.90;;
35376;SDS011;21480;51.642;4.834;2022-08-01T07:11:58;114.67;;;106.97;;
35376;SDS011;21480;51.642;4.834;2022-08-01T07:14:23;115.47;;;107.87;;
35376;SDS011;21480;51.642;4.834;2022-08-01T07:16:49;114.40;;;106.90;;
35376;SDS011;21480;51.642;4.834;2022-08-01T07:19:15;114.57;;;106.40;;
35376;SDS011;21480;51.642;4.834;2022-08-01T07:21:41;113.67;;;106.07;;
35376;SDS011;21480;51.642;4.834;2022-08-01T07:24:09;113.40;;;105.83;;
35376;SDS011;21480;51.642;4.834;2022-08-01T07:26:37;114.53;;;106.97;;
35376;SDS011;21480;51.642;4.834;2022-08-01T07:29:03;114.70;;;106.90;;
35376;SDS011;21480;51.642;4.834;2022-08-01T07:31:29;114.00;;;106.47;;
35376;SDS011;21480;51.642;4.834;2022-08-01T07:33:55;114.17;;;106.53;;
35376;SDS011;21480;51.642;4.834;2022-08-01T07:36:20;115.40;;;107.80;;
35376;SDS011;21480;51.642;4.834;2022-08-01T07:38:46;113.83;;;106.43;;
35376;SDS011;21480;51.642;4.834;2022-08-01T07:41:15;113.77;;;106.17;;
35376;SDS011;21480;51.642;4.834;2022-08-01T07:43:41;114.23;;;106.50;;
35376;SDS011;21480;51.642;4.834;2022-08-01T07:46:07;113.70;;;105.97;;
35376;SDS011;21480;51.642;4.834;2022-08-01T07:48:32;113.93;;;106.43;;
35376;SDS011;21480;51.642;4.834;2022-08-01T07:50:58;114.80;;;107.20;;
35376;SDS011;21480;51.642;4.834;2022-08-01T07:53:24;114.90;;;107.37;;
35376;SDS011;21480;51.642;4.834;2022-08-01T07:55:50;112.17;;;104.80;;
35376;SDS011;21480;51.642;4.834;2022-08-01T07:58:16;114.10;;;106.60;;
35376;SDS011;21480;51.642;4.834;2022-08-01T08:00:42;114.47;;;106.97;;
35376;SDS011;21480;51.642;4.834;2022-08-01T08:03:08;113.83;;;106.23;;
35376;SDS011;21480;51.642;4.834;2022-08-01T08:05:34;115.13;;;107.60;;
35376;SDS011;21480;51.642;4.834;2022-08-01T08:08:09;114.67;;;107.17;;
35376;SDS011;21480;51.642;4.834;2022-08-01T08:10:39;115.87;;;108.23;;
35376;SDS011;21480;51.642;4.834;2022-08-01T08:13:04;114.90;;;107.00;;
35376;SDS011;21480;51.642;4.834;2022-08-01T08:15:30;116.70;;;109.00;;
35376;SDS011;21480;51.642;4.834;2022-08-01T08:17:56;115.30;;;107.70;;
35376;SDS011;21480;51.642;4.834;2022-08-01T08:20:21;115.50;;;107.77;;
35376;SDS011;21480;51.642;4.834;2022-08-01T08:22:50;114.83;;;107.40;;
35376;SDS011;21480;51.642;4.834;2022-08-01T08:25:19;114.47;;;107.00;;
35376;SDS011;21480;51.642;4.834;2022-08-01T08:27:45;114.40;;;106.93;;
35376;SDS011;21480;51.642;4.834;2022-08-01T08:30:11;114.87;;;107.37;;
35376;SDS011;21480;51.642;4.834;2022-08-01T08:32:38;114.43;;;106.90;;
35376;SDS011;21480;51.642;4.834;2022-08-01T08:35:04;114.73;;;107.23;;
35376;SDS011;21480;51.642;4.834;2022-08-01T08:37:31;115.80;;;108.30;;
35376;SDS011;21480;51.642;4.834;2022-08-01T08:39:57;114.23;;;106.73;;
35376;SDS011;21480;51.642;4.834;2022-08-01T08:42:22;114.67;;;107.17;;
35376;SDS011;21480;51.642;4.834;2022-08-01T08:44:48;113.47;;;106.07;;
35376;SDS011;21480;51.642;4.834;2022-08-01T08:47:14;113.40;;;106.00;;
35376;SDS011;21480;51.642;4.834;2022-08-01T08:49:42;114.97;;;107.37;;
35376;SDS011;21480;51.642;4.834;2022-08-01T08:52:08;115.33;;;107.53;;
35376;SDS011;21480;51.642;4.834;2022-08-01T08:54:35;116.70;;;108.90;;
35376;SDS011;21480;51.642;4.834;2022-08-01T08:57:03;114.93;;;107.13;;
35376;SDS011;21480;51.642;4.834;2022-08-01T08:59:30;117.53;;;109.23;;
35376;SDS011;21480;51.642;4.834;2022-08-01T09:01:57;114.87;;;107.27;;
35376;SDS011;21480;51.642;4.834;2022-08-01T09:04:23;114.70;;;107.10;;
35376;SDS011;21480;51.642;4.834;2022-08-01T09:06:49;115.17;;;107.30;;
35376;SDS011;21480;51.642;4.834;2022-08-01T09:09:16;115.53;;;107.60;;
35376;SDS011;21480;51.642;4.834;2022-08-01T09:11:42;114.00;;;106.30;;
35376;SDS011;21480;51.642;4.834;2022-08-01T09:14:09;114.87;;;107.07;;
35376;SDS011;21480;51.642;4.834;2022-08-01T09:16:38;115.33;;;107.37;;
35376;SDS011;21480;51.642;4.834;2022-08-01T09:19:06;115.13;;;107.03;;
35376;SDS011;21480;51.642;4.834;2022-08-01T09:21:32;116.70;;;108.13;;
35376;SDS011;21480;51.642;4.834;2022-08-01T09:23:58;113.67;;;105.97;;
35376;SDS011;21480;51.642;4.834;2022-08-01T09:28:55;116.20;;;108.07;;
35376;SDS011;21480;51.642;4.834;2022-08-01T09:31:21;115.67;;;107.60;;
35376;SDS011;21480;51.642;4.834;2022-08-01T09:36:21;114.77;;;107.13;;
35376;SDS011;21480;51.642;4.834;2022-08-01T09:38:49;114.20;;;106.33;;
35376;SDS011;21480;51.642;4.834;2022-08-01T09:41:16;116.67;;;108.47;;
35376;SDS011;21480;51.642;4.834;2022-08-01T09:43:49;115.50;;;107.77;;
35376;SDS011;21480;51.642;4.834;2022-08-01T09:46:16;114.17;;;106.33;;
35376;SDS011;21480;51.642;4.834;2022-08-01T09:48:54;115.37;;;107.67;;
35376;SDS011;21480;51.642;4.834;2022-08-01T09:51:28;115.10;;;107.07;;
35376;SDS011;21480;51.642;4.834;2022-08-01T09:53:55;112.37;;;104.93;;
35376;SDS011;21480;51.642;4.834;2022-08-01T09:56:22;115.20;;;107.10;;
35376;SDS011;21480;51.642;4.834;2022-08-01T09:58:55;114.57;;;106.67;;
35376;SDS011;21480;51.642;4.834;2022-08-01T10:01:22;116.80;;;108.67;;
35376;SDS011;21480;51.642;4.834;2022-08-01T10:04:07;112.53;;;105.03;;
35376;SDS011;21480;51.642;4.834;2022-08-01T10:06:39;115.37;;;107.30;;
35376;SDS011;21480;51.642;4.834;2022-08-01T10:09:08;113.70;;;106.00;;
35376;SDS011;21480;51.642;4.834;2022-08-01T10:11:34;116.53;;;107.77;;
35376;SDS011;21480;51.642;4.834;2022-08-01T10:14:03;114.60;;;106.67;;
35376;SDS011;21480;51.642;4.834;2022-08-01T10:16:30;114.93;;;106.80;;
35376;SDS011;21480;51.642;4.834;2022-08-01T10:18:58;113.93;;;106.10;;
35376;SDS011;21480;51.642;4.834;2022-08-01T10:21:26;113.27;;;105.67;;
35376;SDS011;21480;51.642;4.834;2022-08-01T10:23:54;115.00;;;107.37;;
35376;SDS011;21480;51.642;4.834;2022-08-01T10:26:25;114.07;;;106.27;;
35376;SDS011;21480;51.642;4.834;2022-08-01T10:28:51;114.20;;;106.40;;
35376;SDS011;21480;51.642;4.834;2022-08-01T10:31:18;116.63;;;107.80;;
35376;SDS011;21480;51.642;4.834;2022-08-01T10:33:44;114.73;;;107.07;;
35376;SDS011;21480;51.642;4.834;2022-08-01T10:36:10;113.80;;;105.97;;
35376;SDS011;21480;51.642;4.834;2022-08-01T10:38:36;116.13;;;107.77;;
35376;SDS011;21480;51.642;4.834;2022-08-01T10:41:03;113.70;;;106.10;;
35376;SDS011;21480;51.642;4.834;2022-08-01T10:43:32;113.87;;;106.23;;
35376;SDS011;21480;51.642;4.834;2022-08-01T10:45:58;113.43;;;105.83;;
35376;SDS011;21480;51.642;4.834;2022-08-01T10:51:34;115.00;;;107.40;;
35376;SDS011;21480;51.642;4.834;2022-08-01T10:54:07;113.87;;;106.37;;
35376;SDS011;21480;51.642;4.834;2022-08-01T10:56:53;114.20;;;106.50;;
35376;SDS011;21480;51.642;4.834;2022-08-01T10:59:28;113.37;;;105.70;;
35376;SDS011;21480;51.642;4.834;2022-08-01T11:02:01;112.87;;;105.57;;
35376;SDS011;21480;51.642;4.834;2022-08-01T11:04:39;113.57;;;105.90;;
35376;SDS011;21480;51.642;4.834;2022-08-01T11:07:21;113.97;;;106.20;;
35376;SDS011;21480;51.642;4.834;2022-08-01T11:10:03;114.50;;;106.97;;
35376;SDS011;21480;51.642;4.834;2022-08-01T11:12:40;114.80;;;106.97;;
35376;SDS011;21480;51.642;4.834;2022-08-01T11:30:43;115.37;;;107.27;;
35376;SDS011;21480;51.642;4.834;2022-08-01T11:33:11;113.33;;;105.83;;
35376;SDS011;21480;51.642;4.834;2022-08-01T11:35:38;113.57;;;106.27;;
35376;SDS011;21480;51.642;4.834;2022-08-01T11:38:36;112.40;;;105.17;;
35376;SDS011;21480;51.642;4.834;2022-08-01T11:41:15;113.13;;;105.87;;
35376;SDS011;21480;51.642;4.834;2022-08-01T11:43:58;113.30;;;105.77;;
35376;SDS011;21480;51.642;4.834;2022-08-01T11:49:22;112.87;;;105.37;;
35376;SDS011;21480;51.642;4.834;2022-08-01T11:51:58;113.67;;;106.17;;
35376;SDS011;21480;51.642;4.834;2022-08-01T11:54:29;113.87;;;106.07;;
35376;SDS011;21480;51.642;4.834;2022-08-01T11:56:58;112.73;;;105.43;;
35376;SDS011;21480;51.642;4.834;2022-08-01T11:59:26;113.63;;;106.17;;
35376;SDS011;21480;51.642;4.834;2022-08-01T12:01:52;113.80;;;106.23;;
35376;SDS011;21480;51.642;4.834;2022-08-01T12:04:18;112.40;;;104.77;;
35376;SDS011;21480;51.642;4.834;2022-08-01T12:06:44;114.20;;;106.83;;
35376;SDS011;21480;51.642;4.834;2022-08-01T12:09:19;113.00;;;105.47;;
35376;SDS011;21480;51.642;4.834;2022-08-01T12:11:46;113.87;;;106.37;;
35376;SDS011;21480;51.642;4.834;2022-08-01T12:14:16;113.63;;;106.00;;
35376;SDS011;21480;51.642;4.834;2022-08-01T12:16:52;114.50;;;106.77;;
35376;SDS011;21480;51.642;4.834;2022-08-01T12:19:22;111.67;;;104.57;;
35376;SDS011;21480;51.642;4.834;2022-08-01T12:22:04;113.00;;;105.70;;
35376;SDS011;21480;51.642;4.834;2022-08-01T12:24:30;112.57;;;105.17;;
35376;SDS011;21480;51.642;4.834;2022-08-01T12:26:56;113.57;;;106.13;;
35376;SDS011;21480;51.642;4.834;2022-08-01T12:29:34;110.83;;;103.93;;
35376;SDS011;21480;51.642;4.834;2022-08-01T12:32:03;110.47;;;103.57;;
35376;SDS011;21480;51.642;4.834;2022-08-01T12:34:29;111.45;;;104.18;;
35376;SDS011;21480;51.642;4.834;2022-08-01T12:36:59;110.93;;;103.87;;
35376;SDS011;21480;51.642;4.834;2022-08-01T12:39:33;111.03;;;103.88;;
35376;SDS011;21480;51.642;4.834;2022-08-01T12:41:59;110.15;;;102.95;;
35376;SDS011;21480;51.642;4.834;2022-08-01T12:44:28;110.47;;;103.45;;
35376;SDS011;21480;51.642;4.834;2022-08-01T12:46:56;111.63;;;104.40;;
35376;SDS011;21480;51.642;4.834;2022-08-01T12:49:22;111.18;;;103.97;;
35376;SDS011;21480;51.642;4.834;2022-08-01T12:51:49;113.20;;;105.30;;
35376;SDS011;21480;51.642;4.834;2022-08-01T12:54:15;111.30;;;104.07;;
35376;SDS011;21480;51.642;4.834;2022-08-01T12:56:40;109.53;;;102.53;;
35376;SDS011;21480;51.642;4.834;2022-08-01T12:59:26;109.75;;;102.63;;
35376;SDS011;21480;51.642;4.834;2022-08-01T13:01:54;109.90;;;102.97;;
35376;SDS011;21480;51.642;4.834;2022-08-01T13:04:21;109.97;;;103.07;;
35376;SDS011;21480;51.642;4.834;2022-08-01T13:06:53;111.95;;;104.85;;
35376;SDS011;21480;51.642;4.834;2022-08-01T13:09:19;110.53;;;103.40;;
35376;SDS011;21480;51.642;4.834;2022-08-01T13:11:45;112.13;;;104.82;;
35376;SDS011;21480;51.642;4.834;2022-08-01T13:14:27;109.50;;;102.60;;
35376;SDS011;21480;51.642;4.834;2022-08-01T13:16:54;110.53;;;103.63;;
35376;SDS011;21480;51.642;4.834;2022-08-01T13:19:19;109.55;;;102.55;;
35376;SDS011;21480;51.642;4.834;2022-08-01T13:21:55;110.88;;;103.95;;
35376;SDS011;21480;51.642;4.834;2022-08-01T13:24:31;111.28;;;104.22;;
35376;SDS011;21480;51.642;4.834;2022-08-01T13:27:00;112.55;;;104.95;;
35376;SDS011;21480;51.642;4.834;2022-08-01T13:29:29;110.60;;;103.78;;
35376;SDS011;21480;51.642;4.834;2022-08-01T13:32:15;110.22;;;103.43;;
35376;SDS011;21480;51.642;4.834;2022-08-01T13:34:43;109.63;;;102.47;;
35376;SDS011;21480;51.642;4.834;2022-08-01T13:37:08;108.13;;;101.50;;
35376;SDS011;21480;51.642;4.834;2022-08-01T13:39:34;110.10;;;103.20;;
35376;SDS011;21480;51.642;4.834;2022-08-01T13:42:15;108.07;;;101.28;;
35376;SDS011;21480;51.642;4.834;2022-08-01T13:44:41;109.85;;;102.95;;
35376;SDS011;21480;51.642;4.834;2022-08-01T13:47:10;108.38;;;101.70;;
35376;SDS011;21480;51.642;4.834;2022-08-01T13:49:36;109.20;;;102.25;;
35376;SDS011;21480;51.642;4.834;2022-08-01T13:52:02;108.65;;;102.03;;
35376;SDS011;21480;51.642;4.834;2022-08-01T13:54:28;109.63;;;102.75;;
35376;SDS011;21480;51.642;4.834;2022-08-01T13:56:54;111.88;;;104.88;;
35376;SDS011;21480;51.642;4.834;2022-08-01T13:59:20;108.50;;;102.05;;
35376;SDS011;21480;51.642;4.834;2022-08-01T14:01:46;107.32;;;100.82;;
35376;SDS011;21480;51.642;4.834;2022-08-01T14:04:12;107.13;;;100.82;;
35376;SDS011;21480;51.642;4.834;2022-08-01T14:06:38;106.95;;;100.22;;
35376;SDS011;21480;51.642;4.834;2022-08-01T14:09:04;105.78;;;99.20;;
35376;SDS011;21480;51.642;4.834;2022-08-01T14:11:30;106.03;;;99.63;;
35376;SDS011;21480;51.642;4.834;2022-08-01T14:13:57;107.30;;;100.75;;
35376;SDS011;21480;51.642;4.834;2022-08-01T14:16:23;107.85;;;101.22;;
35376;SDS011;21480;51.642;4.834;2022-08-01T14:18:49;108.70;;;102.07;;
35376;SDS011;21480;51.642;4.834;2022-08-01T14:21:15;109.60;;;102.60;;
35376;SDS011;21480;51.642;4.834;2022-08-01T14:23:41;107.10;;;100.60;;
35376;SDS011;21480;51.642;4.834;2022-08-01T14:26:09;108.25;;;101.85;;
35376;SDS011;21480;51.642;4.834;2022-08-01T14:28:36;107.40;;;101.07;;
35376;SDS011;21480;51.642;4.834;2022-08-01T14:31:03;109.38;;;102.80;;
35376;SDS011;21480;51.642;4.834;2022-08-01T14:33:31;109.15;;;102.53;;
35376;SDS011;21480;51.642;4.834;2022-08-01T14:35:57;105.88;;;99.43;;
35376;SDS011;21480;51.642;4.834;2022-08-01T14:38:22;106.82;;;100.35;;
35376;SDS011;21480;51.642;4.834;2022-08-01T14:40:49;107.80;;;101.40;;
35376;SDS011;21480;51.642;4.834;2022-08-01T14:43:18;105.28;;;99.07;;